Time;durP1;ratioP1;P1;durP2;ratioP2;P2;SDS_P1;SDS_P2;PMS_P1;PMS_P2;Temp;Humidity;BMP_temperature;BMP_pressure;BME280_temperature;BME280_humidity;BME280_pressure;Samples;Min_cycle;Max_cycle;Signal;HPM_P1;HPM_P2
2022/11/11 00:01:43;;;;;;;43.17;26.37;;;9.60;99.90;;;;;;4992439;28;20218;-70
2022/11/11 00:04:10;;;;;;;49.23;28.23;;;9.60;99.90;;;;;;4992225;28;20206;-69
2022/11/11 00:06:38;;;;;;;45.20;27.23;;;9.50;99.90;;;;;;4991243;28;20203;-71
2022/11/11 00:09:05;;;;;;;41.20;25.97;;;9.50;99.90;;;;;;4991724;28;20253;-69
2022/11/11 00:11:32;;;;;;;42.97;26.37;;;9.50;99.90;;;;;;4989843;28;20217;-71
2022/11/11 00:13:58;;;;;;;46.57;26.63;;;9.50;99.90;;;;;;4992250;28;20211;-70
2022/11/11 00:25:04;;;;;;;42.00;26.30;;;9.50;99.90;;;;;;4993028;28;20653;-68
2022/11/11 00:27:26;;;;;;;42.23;24.67;;;9.50;99.90;;;;;;4992552;28;20615;-69
2022/11/11 00:29:53;;;;;;;41.03;24.90;;;9.50;99.90;;;;;;4993240;28;20585;-68
2022/11/11 00:32:22;;;;;;;40.23;24.97;;;9.50;99.90;;;;;;4992496;28;20229;-70
2022/11/11 00:37:35;;;;;;;43.03;26.07;;;9.50;99.90;;;;;;4992320;28;20214;-69
2022/11/11 00:40:03;;;;;;;45.10;26.07;;;9.50;99.90;;;;;;4991975;28;20363;-70
2022/11/11 00:42:29;;;;;;;47.77;28.07;;;9.50;99.90;;;;;;4992165;28;20579;-69
2022/11/11 00:44:56;;;;;;;43.90;25.70;;;9.50;99.90;;;;;;4991759;28;20203;-70
2022/11/11 00:52:56;;;;;;;41.87;24.77;;;9.50;99.90;;;;;;4995373;28;20669;-68
2022/11/11 00:55:23;;;;;;;39.93;23.93;;;9.50;99.90;;;;;;4995600;28;20209;-68
2022/11/11 00:57:50;;;;;;;39.63;24.57;;;9.50;99.90;;;;;;4995410;28;20203;-69
2022/11/11 01:00:17;;;;;;;35.90;22.33;;;9.50;99.90;;;;;;4995229;28;20199;-69
2022/11/11 01:02:44;;;;;;;37.73;23.40;;;9.50;99.90;;;;;;5001003;28;20202;-69
2022/11/11 01:05:11;;;;;;;41.20;24.73;;;9.50;99.90;;;;;;5006010;28;20221;-70
2022/11/11 01:07:37;;;;;;;36.03;22.67;;;9.50;99.90;;;;;;5004517;28;20571;-69
2022/11/11 01:10:06;;;;;;;37.97;24.57;;;9.50;99.90;;;;;;5014525;28;20238;-70
2022/11/11 01:12:33;;;;;;;42.70;24.70;;;9.50;99.90;;;;;;5015110;28;20203;-69
2022/11/11 01:15:00;;;;;;;37.33;23.43;;;9.50;99.90;;;;;;5014634;28;20567;-70
2022/11/11 01:17:27;;;;;;;38.07;23.10;;;9.50;99.90;;;;;;4997187;28;20225;-71
2022/11/11 01:19:53;;;;;;;34.90;21.53;;;9.50;99.90;;;;;;4997620;28;20222;-68
2022/11/11 01:22:20;;;;;;;34.50;21.67;;;9.50;99.90;;;;;;4995240;28;20207;-70
2022/11/11 01:24:47;;;;;;;36.23;22.47;;;9.50;99.90;;;;;;4995393;28;20218;-69
2022/11/11 01:27:15;;;;;;;38.90;22.60;;;9.50;99.90;;;;;;4994969;28;20207;-68
2022/11/11 01:29:42;;;;;;;39.90;22.40;;;9.50;99.90;;;;;;4993695;28;20319;-69
2022/11/11 01:32:08;;;;;;;35.30;22.47;;;9.50;99.90;;;;;;4993433;28;20207;-69
2022/11/11 01:34:35;;;;;;;34.50;21.43;;;9.50;99.90;;;;;;4993099;28;20210;-70
2022/11/11 01:37:02;;;;;;;32.70;20.90;;;9.50;99.90;;;;;;4994667;28;20569;-70
2022/11/11 01:39:29;;;;;;;34.23;20.80;;;9.50;99.90;;;;;;4994067;28;20208;-70
2022/11/11 01:41:55;;;;;;;35.13;20.73;;;9.50;99.90;;;;;;4994414;28;20214;-68
2022/11/11 01:44:45;;;;;;;31.90;20.33;;;9.50;99.90;;;;;;4994534;28;20216;-70
2022/11/11 01:47:12;;;;;;;31.23;20.13;;;9.50;99.90;;;;;;4994504;28;20283;-71
2022/11/11 01:49:49;;;;;;;32.90;18.77;;;9.60;99.90;;;;;;4993329;28;20207;-69
2022/11/11 01:52:21;;;;;;;29.87;18.67;;;9.60;99.90;;;;;;4992808;28;20227;-70
2022/11/11 01:54:51;;;;;;;32.13;20.17;;;9.60;99.90;;;;;;4993732;28;20714;-70
2022/11/11 01:57:22;;;;;;;27.13;17.73;;;9.60;99.90;;;;;;4994460;28;20579;-69
2022/11/11 01:59:59;;;;;;;30.43;19.07;;;9.60;99.90;;;;;;4994152;28;20570;-71
2022/11/11 02:02:30;;;;;;;33.40;19.60;;;9.60;99.90;;;;;;4993731;28;20716;-68
2022/11/11 02:07:43;;;;;;;29.73;17.60;;;9.60;99.90;;;;;;4993976;28;20194;-70
2022/11/11 02:10:10;;;;;;;26.93;16.57;;;9.60;99.90;;;;;;4993726;28;20242;-69
2022/11/11 02:15:22;;;;;;;24.03;16.37;;;9.60;99.90;;;;;;4993434;28;20676;-69
2022/11/11 02:17:50;;;;;;;23.70;16.30;;;9.60;99.90;;;;;;4994115;28;20226;-69
2022/11/11 02:20:20;;;;;;;24.70;16.03;;;9.70;99.90;;;;;;4993897;28;20207;-69
2022/11/11 02:22:52;;;;;;;23.47;16.13;;;9.70;99.90;;;;;;4992926;28;20215;-70
2022/11/11 02:25:23;;;;;;;24.97;16.20;;;9.70;99.90;;;;;;4994119;28;20574;-69
2022/11/11 02:27:52;;;;;;;23.93;15.00;;;9.70;99.90;;;;;;4993701;28;20205;-68
2022/11/11 02:30:20;;;;;;;21.20;14.33;;;9.70;99.90;;;;;;4993916;28;20231;-69
2022/11/11 02:32:49;;;;;;;21.97;14.77;;;9.70;99.90;;;;;;4992948;28;20647;-69
2022/11/11 02:35:18;;;;;;;22.93;15.13;;;9.70;99.90;;;;;;4993830;28;20666;-70
2022/11/11 02:37:47;;;;;;;23.17;15.03;;;9.70;99.90;;;;;;4993315;28;20207;-69
2022/11/11 02:40:18;;;;;;;26.30;15.03;;;9.70;99.90;;;;;;4993729;28;20204;-70
2022/11/11 02:42:46;;;;;;;20.47;14.20;;;9.70;99.90;;;;;;4991610;28;20211;-70
2022/11/11 02:45:13;;;;;;;21.20;14.17;;;9.70;99.90;;;;;;4993441;28;20213;-69
2022/11/11 02:47:40;;;;;;;25.17;16.30;;;9.70;99.90;;;;;;4992596;28;20213;-69
2022/11/11 02:50:07;;;;;;;21.03;14.33;;;9.70;99.90;;;;;;4993260;28;20227;-70
2022/11/11 02:52:34;;;;;;;19.73;13.73;;;9.70;99.90;;;;;;4993191;28;20207;-70
2022/11/11 02:55:01;;;;;;;19.53;13.60;;;9.70;99.90;;;;;;4993146;28;20210;-69
2022/11/11 02:57:28;;;;;;;19.60;13.20;;;9.80;99.90;;;;;;4992312;28;20208;-69
2022/11/11 02:59:59;;;;;;;24.90;14.20;;;9.80;99.90;;;;;;4992527;28;20215;-71
2022/11/11 03:02:26;;;;;;;19.77;14.00;;;9.80;99.90;;;;;;4992742;28;20199;-68
2022/11/11 03:04:53;;;;;;;19.43;13.43;;;9.70;99.90;;;;;;4993321;28;20669;-68
2022/11/11 03:07:20;;;;;;;22.07;14.70;;;9.70;99.90;;;;;;4991377;28;20220;-68
2022/11/11 03:09:47;;;;;;;20.90;13.93;;;9.70;99.90;;;;;;4992173;28;20239;-70
2022/11/11 03:12:14;;;;;;;20.17;13.93;;;9.70;99.90;;;;;;4992973;28;20214;-68
2022/11/11 03:14:41;;;;;;;19.13;13.57;;;9.70;99.90;;;;;;4992860;28;20207;-67
2022/11/11 03:21:03;;;;;;;19.50;13.47;;;9.80;99.90;;;;;;4988965;28;20350;-69
2022/11/11 03:22:39;;;;;;;21.53;13.60;;;9.80;99.90;;;;;;4992294;28;20215;-69
2022/11/11 03:27:51;;;;;;;21.37;14.07;;;9.80;99.90;;;;;;4991002;28;20784;-69
2022/11/11 03:30:18;;;;;;;22.73;14.13;;;9.80;99.90;;;;;;4992452;28;20823;-69
2022/11/11 10:32:56;;;;;;;26.80;16.53;;;10.60;99.90;;;;;;5110238;27;20640;-69
2022/11/11 10:35:25;;;;;;;32.87;17.30;;;11.20;99.90;;;;;;5093201;28;20286;-69
2022/11/11 10:38:04;;;;;;;26.67;16.37;;;11.30;99.90;;;;;;5104723;28;20196;-70
2022/11/11 10:40:37;;;;;;;25.50;15.87;;;11.40;99.90;;;;;;5096261;28;20538;-70
2022/11/11 10:43:04;;;;;;;25.53;14.73;;;11.50;99.90;;;;;;5107510;28;20282;-69
2022/11/11 10:45:40;;;;;;;25.53;15.83;;;11.60;99.90;;;;;;5096171;28;20206;-69
2022/11/11 10:48:13;;;;;;;25.97;14.83;;;11.60;99.90;;;;;;5104928;28;20188;-70
2022/11/11 10:50:44;;;;;;;24.03;14.23;;;11.70;99.90;;;;;;5096979;28;20302;-68
2022/11/11 10:53:18;;;;;;;27.00;16.00;;;11.70;99.90;;;;;;5108723;28;20184;-69
2022/11/11 10:55:49;;;;;;;28.20;16.37;;;11.70;99.90;;;;;;5102886;28;20191;-69
2022/11/11 10:58:22;;;;;;;25.70;15.63;;;11.80;99.90;;;;;;5097614;28;20199;-70
2022/11/11 11:00:51;;;;;;;25.87;14.80;;;11.80;99.90;;;;;;5088697;28;20185;-68
2022/11/11 11:03:24;;;;;;;25.10;15.20;;;11.90;99.90;;;;;;5090938;28;20208;-69
2022/11/11 11:05:56;;;;;;;23.73;15.23;;;11.90;99.90;;;;;;5087847;28;20253;-71
2022/11/11 11:08:27;;;;;;;24.80;15.07;;;12.00;99.90;;;;;;5088283;28;20189;-70
2022/11/11 11:10:58;;;;;;;22.30;14.33;;;12.00;99.90;;;;;;5087953;28;20212;-69
2022/11/11 11:13:32;;;;;;;26.43;13.90;;;12.00;99.90;;;;;;5089501;28;20192;-69
2022/11/11 11:16:14;;;;;;;23.47;13.40;;;12.00;99.90;;;;;;5108418;28;20196;-70
2022/11/11 11:18:43;;;;;;;21.60;13.37;;;12.10;99.90;;;;;;5106052;28;20226;-69
2022/11/11 11:21:10;;;;;;;17.90;11.87;;;12.10;99.90;;;;;;5087993;28;20208;-70
2022/11/11 11:23:39;;;;;;;20.70;11.60;;;12.00;99.90;;;;;;5088024;28;20204;-69
2022/11/11 11:26:07;;;;;;;22.47;12.10;;;12.10;99.90;;;;;;5088190;28;20562;-68
2022/11/11 11:28:34;;;;;;;20.13;11.53;;;12.10;99.90;;;;;;5087880;28;20208;-70
2022/11/11 11:31:03;;;;;;;19.67;11.47;;;12.20;99.90;;;;;;5106884;28;20243;-70
2022/11/11 11:33:51;;;;;;;21.90;11.97;;;12.20;99.90;;;;;;5088868;28;20696;-70
2022/11/11 11:36:18;;;;;;;18.80;10.87;;;12.20;99.90;;;;;;5076858;28;20219;-70
2022/11/11 11:38:49;;;;;;;16.40;10.53;;;12.20;99.90;;;;;;5080037;28;20207;-68
2022/11/11 11:41:16;;;;;;;17.47;11.10;;;12.30;99.90;;;;;;5078629;28;20239;-69
2022/11/11 11:43:44;;;;;;;18.03;10.07;;;12.30;99.90;;;;;;5084749;28;20253;-70
2022/11/11 11:46:19;;;;;;;15.93;9.83;;;12.40;99.90;;;;;;5080736;28;20696;-72
2022/11/11 11:49:14;;;;;;;13.57;9.83;;;12.40;99.90;;;;;;5088162;28;20188;-68
2022/11/11 11:51:51;;;;;;;14.30;9.10;;;12.40;99.90;;;;;;5084037;28;20696;-68
2022/11/11 11:54:31;;;;;;;16.87;9.20;;;12.40;99.90;;;;;;5082693;28;20210;-70
2022/11/11 11:57:02;;;;;;;14.40;8.93;;;12.40;99.90;;;;;;5087097;28;20226;-69
2022/11/11 11:59:37;;;;;;;16.03;8.83;;;12.50;99.90;;;;;;5084901;28;20208;-69
2022/11/11 12:02:20;;;;;;;14.37;9.07;;;12.50;99.90;;;;;;5092265;28;20575;-69
2022/11/11 12:05:01;;;;;;;15.77;9.13;;;12.50;99.90;;;;;;5094080;28;20211;-70
2022/11/11 12:07:43;;;;;;;16.00;8.83;;;12.60;99.90;;;;;;5093810;28;20227;-70
2022/11/11 12:10:28;;;;;;;13.03;8.50;;;12.50;99.90;;;;;;5093941;28;20289;-69
2022/11/11 12:13:02;;;;;;;15.07;9.10;;;12.50;99.90;;;;;;5093759;28;20192;-69
2022/11/11 12:15:36;;;;;;;12.60;7.60;;;12.50;99.90;;;;;;5093583;28;20192;-69
2022/11/11 12:18:30;;;;;;;13.97;8.20;;;12.60;99.90;;;;;;5093683;28;20652;-70
2022/11/11 12:21:07;;;;;;;16.40;7.80;;;12.50;99.90;;;;;;5093507;28;20189;-70
2022/11/11 12:23:50;;;;;;;14.27;8.63;;;12.60;99.90;;;;;;5093184;28;20192;-69
2022/11/11 12:26:22;;;;;;;15.03;8.40;;;12.50;99.90;;;;;;5093514;28;20545;-70
2022/11/11 12:29:04;;;;;;;12.27;8.73;;;12.50;99.90;;;;;;5093467;28;20195;-70
2022/11/11 12:31:42;;;;;;;14.73;8.83;;;12.50;99.90;;;;;;5093228;28;20236;-70
2022/11/11 12:34:21;;;;;;;14.43;9.00;;;12.50;99.90;;;;;;5093501;28;20192;-70
2022/11/11 12:36:58;;;;;;;19.07;10.47;;;12.50;99.90;;;;;;5093713;28;20188;-70
2022/11/11 12:39:39;;;;;;;20.17;9.80;;;12.60;99.90;;;;;;5093593;28;20271;-70
2022/11/11 12:42:17;;;;;;;14.57;9.23;;;12.60;99.90;;;;;;5093021;28;20185;-71
2022/11/11 12:44:55;;;;;;;19.10;9.47;;;12.60;99.90;;;;;;5092269;28;20188;-70
2022/11/11 12:47:32;;;;;;;18.80;10.73;;;12.60;99.90;;;;;;5093225;28;20622;-69
2022/11/11 12:50:13;;;;;;;16.20;10.17;;;12.60;99.90;;;;;;5093190;28;20646;-70
2022/11/11 12:52:54;;;;;;;18.70;10.67;;;12.70;99.90;;;;;;5093332;28;20234;-71
2022/11/11 12:55:28;;;;;;;17.00;10.37;;;12.70;99.90;;;;;;5093116;28;20192;-69
2022/11/11 12:58:08;;;;;;;18.50;9.87;;;12.70;99.90;;;;;;5092739;28;20199;-70
2022/11/11 13:00:42;;;;;;;25.20;10.40;;;12.70;99.90;;;;;;5092973;28;20203;-69
2022/11/11 13:03:27;;;;;;;21.63;9.57;;;12.70;99.90;;;;;;5092875;28;20188;-70
2022/11/11 13:06:05;;;;;;;22.37;10.83;;;12.60;99.90;;;;;;5092725;28;20203;-70
2022/11/11 13:09:00;;;;;;;17.00;10.50;;;12.70;99.90;;;;;;5092680;28;20581;-71
2022/11/11 13:11:33;;;;;;;18.93;10.80;;;12.60;99.90;;;;;;5092644;28;20208;-72
2022/11/11 13:14:16;;;;;;;18.63;10.70;;;12.60;99.90;;;;;;5093107;28;20635;-69
2022/11/11 13:16:43;;;;;;;22.77;12.53;;;12.60;99.90;;;;;;5093413;28;20199;-69
2022/11/11 13:19:18;;;;;;;20.77;11.30;;;12.50;99.90;;;;;;5092589;28;20241;-69
2022/11/11 13:21:50;;;;;;;19.77;11.47;;;12.50;99.90;;;;;;5090537;28;20196;-71
2022/11/11 13:24:22;;;;;;;17.60;10.40;;;12.40;99.90;;;;;;5091332;28;20200;-69
2022/11/11 13:26:52;;;;;;;19.93;10.47;;;12.40;99.90;;;;;;5089384;28;20227;-71
2022/11/11 13:29:46;;;;;;;17.63;10.13;;;12.30;99.90;;;;;;5076435;28;20601;-72
2022/11/11 13:32:17;;;;;;;15.77;9.47;;;12.30;99.90;;;;;;5073863;28;20267;-68
2022/11/11 13:34:45;;;;;;;17.83;10.37;;;12.20;99.90;;;;;;5074699;28;20208;-69
2022/11/11 13:37:22;;;;;;;17.83;10.33;;;12.20;99.90;;;;;;5074293;28;20209;-67
2022/11/11 13:39:51;;;;;;;16.03;9.73;;;12.10;99.90;;;;;;5072125;28;20188;-68
2022/11/11 13:42:23;;;;;;;19.33;9.87;;;12.10;99.90;;;;;;5071889;28;20200;-68
2022/11/11 13:44:52;;;;;;;13.33;8.57;;;12.10;99.90;;;;;;5071887;28;20197;-68
2022/11/11 13:47:21;;;;;;;17.47;9.80;;;12.00;99.90;;;;;;5072178;28;20598;-67
2022/11/11 13:49:55;;;;;;;15.50;10.27;;;12.00;99.90;;;;;;5092249;28;20200;-68
2022/11/11 13:52:24;;;;;;;16.47;10.33;;;11.90;99.90;;;;;;5084009;28;20597;-67
2022/11/11 13:54:58;;;;;;;16.00;10.30;;;11.90;99.90;;;;;;5071257;28;20231;-68
2022/11/11 13:57:28;;;;;;;17.63;10.67;;;11.90;99.90;;;;;;5071761;28;20193;-68
2022/11/11 13:59:59;;;;;;;17.67;10.50;;;11.90;99.90;;;;;;5078285;28;20231;-70
2022/11/11 14:02:33;;;;;;;14.37;10.20;;;11.80;99.90;;;;;;5092345;28;20550;-71
2022/11/11 14:05:22;;;;;;;19.50;10.73;;;11.80;99.90;;;;;;5091787;28;20501;-71
2022/11/11 14:07:53;;;;;;;16.77;10.37;;;11.80;99.90;;;;;;5091878;28;20206;-69
2022/11/11 14:10:54;;;;;;;18.07;9.73;;;11.70;99.90;;;;;;5076067;28;20204;-67
2022/11/11 18:30:40;;;;;;;34.73;21.20;;;8.70;99.90;;;;;;4997860;28;20621;-68
2022/11/11 18:33:08;;;;;;;34.67;20.97;;;9.30;99.90;;;;;;4991326;28;20212;-69
2022/11/11 18:35:35;;;;;;;33.73;20.67;;;9.40;99.90;;;;;;4990538;28;20200;-71
2022/11/11 18:38:01;;;;;;;31.27;20.00;;;9.50;99.90;;;;;;4987393;28;20302;-68
2022/11/11 18:40:28;;;;;;;32.90;19.70;;;9.50;99.90;;;;;;4986122;28;20215;-68
2022/11/11 18:42:56;;;;;;;30.97;19.43;;;9.50;99.90;;;;;;4990766;28;20207;-67
2022/11/11 18:45:23;;;;;;;30.43;19.13;;;9.50;99.90;;;;;;4990551;28;20211;-69
2022/11/11 18:47:51;;;;;;;34.00;19.43;;;9.50;99.90;;;;;;4990417;28;20676;-70
2022/11/11 18:50:18;;;;;;;31.77;19.47;;;9.50;99.90;;;;;;4989134;28;20204;-68
2022/11/11 18:52:45;;;;;;;34.03;21.27;;;9.50;99.90;;;;;;4989784;28;20204;-67
2022/11/11 18:55:12;;;;;;;38.50;21.57;;;9.50;99.90;;;;;;4990556;28;20210;-67
2022/11/11 18:57:38;;;;;;;31.67;19.60;;;9.50;99.90;;;;;;4988798;28;20250;-68
2022/11/11 19:00:06;;;;;;;28.10;19.20;;;9.50;99.90;;;;;;4988107;28;20208;-67
2022/11/11 19:02:33;;;;;;;28.60;18.77;;;9.50;99.90;;;;;;4990235;28;20220;-70
2022/11/11 19:05:01;;;;;;;45.23;23.27;;;9.50;99.90;;;;;;4988788;28;20595;-70
2022/11/11 19:07:28;;;;;;;30.50;19.47;;;9.50;99.90;;;;;;4988531;28;20208;-68
2022/11/11 19:09:54;;;;;;;32.07;19.43;;;9.40;99.90;;;;;;4989195;28;20224;-69
2022/11/11 19:12:21;;;;;;;29.27;18.50;;;9.40;99.90;;;;;;4984011;28;20204;-69
2022/11/11 19:14:48;;;;;;;28.80;19.43;;;9.40;99.90;;;;;;4970382;28;20211;-68
2022/11/11 19:17:15;;;;;;;37.20;24.17;;;9.30;99.90;;;;;;4970521;28;20204;-70
2022/11/11 19:19:41;;;;;;;33.67;21.17;;;9.30;99.90;;;;;;4986920;28;20210;-67
2022/11/11 19:22:10;;;;;;;32.23;21.13;;;9.30;99.90;;;;;;4989552;28;20203;-71
2022/11/11 19:24:37;;;;;;;34.50;21.03;;;9.20;99.90;;;;;;4989249;28;20204;-69
2022/11/11 19:27:04;;;;;;;30.13;19.07;;;9.20;99.90;;;;;;4989523;28;20227;-69
2022/11/11 19:29:31;;;;;;;29.67;18.53;;;9.20;99.90;;;;;;4987371;28;20239;-68
2022/11/11 19:31:58;;;;;;;35.40;22.87;;;9.20;99.90;;;;;;4975647;28;20204;-68
2022/11/11 19:34:25;;;;;;;30.97;20.17;;;9.10;99.90;;;;;;4972044;28;20983;-70
2022/11/11 19:36:51;;;;;;;34.30;19.70;;;9.10;99.90;;;;;;4973720;28;20204;-71
2022/11/11 19:39:20;;;;;;;32.37;18.47;;;9.10;99.90;;;;;;4975228;28;20200;-69
2022/11/11 19:41:46;;;;;;;34.33;20.83;;;9.10;99.90;;;;;;4971153;28;20204;-70
2022/11/11 19:44:13;;;;;;;28.73;18.70;;;9.10;99.90;;;;;;4976411;28;20208;-71
2022/11/11 19:46:40;;;;;;;33.20;19.57;;;9.00;99.90;;;;;;4973949;28;20212;-69
2022/11/11 19:49:07;;;;;;;32.83;20.30;;;9.00;99.90;;;;;;4976253;28;20235;-70
2022/11/11 19:51:34;;;;;;;27.90;18.47;;;9.00;99.90;;;;;;4976025;28;20205;-69
2022/11/11 19:54:00;;;;;;;27.23;18.50;;;8.90;99.90;;;;;;4976264;28;20273;-69
2022/11/11 19:56:31;;;;;;;29.93;19.53;;;8.90;99.90;;;;;;4977298;28;20222;-70
2022/11/11 19:58:58;;;;;;;32.23;20.80;;;8.80;99.90;;;;;;4975785;28;20216;-69
2022/11/11 20:01:26;;;;;;;30.00;19.63;;;8.80;99.90;;;;;;4976487;28;20211;-70
2022/11/11 20:03:53;;;;;;;28.53;17.57;;;8.80;99.90;;;;;;4976520;28;20210;-68
2022/11/11 20:06:22;;;;;;;36.70;20.13;;;8.80;99.90;;;;;;4976550;28;20319;-70
2022/11/11 20:08:50;;;;;;;30.47;20.30;;;8.70;99.90;;;;;;4976111;28;20315;-70
2022/11/11 20:11:17;;;;;;;31.00;18.63;;;8.70;99.90;;;;;;4975327;28;20210;-69
2022/11/11 20:13:45;;;;;;;30.80;19.03;;;8.60;99.90;;;;;;4980090;28;20691;-70
2022/11/11 20:16:12;;;;;;;30.10;16.77;;;8.60;99.90;;;;;;4982340;28;20235;-72
2022/11/11 20:18:39;;;;;;;27.47;17.07;;;8.60;99.90;;;;;;4970827;28;20276;-68
2022/11/11 20:21:07;;;;;;;28.23;17.60;;;8.60;99.90;;;;;;4969239;28;20204;-67
2022/11/11 20:23:35;;;;;;;28.80;17.13;;;8.50;99.90;;;;;;4976027;28;20236;-69
2022/11/11 20:26:05;;;;;;;25.53;15.17;;;8.50;99.90;;;;;;4975234;28;20311;-69
2022/11/11 20:28:31;;;;;;;26.17;16.27;;;8.50;99.90;;;;;;4973288;28;20200;-69
2022/11/11 20:31:05;;;;;;;24.87;14.80;;;8.40;99.90;;;;;;4974918;28;20210;-69
2022/11/11 20:33:32;;;;;;;30.60;15.73;;;8.40;99.90;;;;;;4968995;28;20307;-69
2022/11/11 20:36:01;;;;;;;37.07;23.53;;;8.40;99.90;;;;;;4975010;28;20210;-68
2022/11/11 20:38:29;;;;;;;31.40;20.30;;;8.30;99.90;;;;;;4975300;28;20227;-70
2022/11/11 20:40:59;;;;;;;24.60;15.40;;;8.30;99.90;;;;;;4974857;28;20219;-69
2022/11/11 20:43:28;;;;;;;23.27;14.77;;;8.30;99.90;;;;;;4970453;28;20219;-70
2022/11/11 20:45:55;;;;;;;20.57;13.53;;;8.30;99.90;;;;;;4975251;28;20255;-66
2022/11/11 20:48:23;;;;;;;30.80;14.83;;;8.30;99.90;;;;;;4972657;28;20216;-67
2022/11/11 20:50:50;;;;;;;25.50;14.03;;;8.30;99.90;;;;;;4975283;28;20216;-68
2022/11/11 20:53:17;;;;;;;30.43;19.80;;;8.30;99.90;;;;;;4975228;28;20220;-70
2022/11/11 20:55:43;;;;;;;36.47;24.03;;;8.30;99.90;;;;;;4974760;28;20218;-69
2022/11/11 20:58:10;;;;;;;30.67;16.97;;;8.30;99.90;;;;;;4973716;28;20208;-70
2022/11/11 21:00:37;;;;;;;24.20;14.77;;;8.30;99.90;;;;;;4972973;28;20222;-68
2022/11/11 21:03:04;;;;;;;24.80;15.53;;;8.20;99.90;;;;;;4974328;28;20207;-68
2022/11/11 21:05:33;;;;;;;25.00;14.77;;;8.20;99.90;;;;;;4973594;28;20255;-69
2022/11/11 21:07:59;;;;;;;27.20;15.43;;;8.20;99.90;;;;;;4970048;28;20588;-70
2022/11/11 21:10:26;;;;;;;26.03;14.93;;;8.20;99.90;;;;;;4969243;28;20228;-69
2022/11/11 21:12:54;;;;;;;25.43;16.47;;;8.20;99.90;;;;;;4974349;28;20219;-69
2022/11/11 21:15:21;;;;;;;29.70;16.70;;;8.10;99.90;;;;;;4973463;28;20211;-70
2022/11/11 21:17:48;;;;;;;26.10;15.30;;;8.10;99.90;;;;;;4971842;28;20218;-71
2022/11/11 21:20:16;;;;;;;25.50;15.40;;;8.10;99.90;;;;;;4972245;28;20219;-70
2022/11/11 21:22:44;;;;;;;22.63;14.77;;;8.10;99.90;;;;;;4985754;28;20234;-69
2022/11/11 21:25:11;;;;;;;22.10;14.73;;;8.00;99.90;;;;;;4976354;28;20218;-67
2022/11/11 21:27:38;;;;;;;26.00;15.23;;;8.10;99.90;;;;;;4974186;28;20214;-70
2022/11/11 21:30:05;;;;;;;25.07;14.73;;;8.00;99.90;;;;;;4973528;28;20236;-68
2022/11/11 21:32:32;;;;;;;25.70;14.83;;;8.00;99.90;;;;;;4974098;28;20291;-69
2022/11/11 21:34:59;;;;;;;24.50;14.73;;;8.00;99.90;;;;;;4973589;28;20215;-68
2022/11/11 21:37:27;;;;;;;28.23;15.70;;;8.00;99.90;;;;;;4973826;28;20211;-68
2022/11/11 21:39:55;;;;;;;25.67;16.20;;;8.00;99.90;;;;;;4972492;28;20202;-68
2022/11/11 21:42:22;;;;;;;26.70;16.40;;;7.90;99.90;;;;;;4972999;28;20215;-69
2022/11/11 21:44:48;;;;;;;24.53;15.77;;;7.90;99.90;;;;;;4973701;28;20674;-68
2022/11/11 21:47:15;;;;;;;25.93;15.67;;;7.90;99.90;;;;;;4966776;28;20224;-69
2022/11/11 21:49:42;;;;;;;25.77;16.70;;;7.90;99.90;;;;;;4967804;28;20446;-69
2022/11/11 21:52:09;;;;;;;27.00;16.17;;;7.80;99.90;;;;;;4972759;28;20210;-67
2022/11/11 21:54:35;;;;;;;27.73;16.07;;;7.80;99.90;;;;;;4968796;28;20204;-68
2022/11/11 21:57:04;;;;;;;30.57;16.03;;;7.80;99.90;;;;;;4973574;28;20214;-69
2022/11/11 21:59:30;;;;;;;23.87;15.50;;;7.80;99.90;;;;;;4973455;28;20196;-69
2022/11/11 22:01:57;;;;;;;30.40;16.80;;;7.80;99.90;;;;;;4963232;28;20196;-66
2022/11/11 22:04:24;;;;;;;31.90;18.80;;;7.80;99.90;;;;;;4963680;28;20203;-69
2022/11/11 22:06:51;;;;;;;31.83;17.30;;;7.70;99.90;;;;;;4970687;28;20196;-68
2022/11/11 22:09:17;;;;;;;31.87;17.33;;;7.70;99.90;;;;;;4973926;28;20728;-67
2022/11/11 22:11:44;;;;;;;27.33;17.30;;;7.70;99.90;;;;;;4974106;28;20246;-70
2022/11/11 22:14:13;;;;;;;30.73;17.43;;;7.70;99.90;;;;;;4990311;28;20215;-68
2022/11/11 22:16:40;;;;;;;25.20;16.63;;;7.60;99.90;;;;;;4992657;28;20243;-68
2022/11/11 22:19:11;;;;;;;26.67;16.67;;;7.60;99.90;;;;;;4992400;28;20191;-66
2022/11/11 22:21:39;;;;;;;28.27;16.27;;;7.70;99.90;;;;;;4972326;28;20202;-67
2022/11/11 22:24:09;;;;;;;25.27;16.60;;;7.60;99.90;;;;;;4970240;28;20204;-66
2022/11/11 22:26:37;;;;;;;26.83;16.20;;;7.60;99.90;;;;;;4970681;28;20212;-68
2022/11/11 22:29:06;;;;;;;31.07;17.83;;;7.60;99.90;;;;;;4962666;28;21113;-67
2022/11/11 22:31:36;;;;;;;25.23;16.80;;;7.60;99.90;;;;;;4973636;28;20214;-67
2022/11/11 22:34:04;;;;;;;27.17;17.17;;;7.50;99.90;;;;;;4972996;28;20685;-66
2022/11/11 22:36:33;;;;;;;28.03;16.87;;;7.50;99.90;;;;;;4970915;28;20200;-67
2022/11/11 22:39:00;;;;;;;26.47;17.57;;;7.50;99.90;;;;;;4973088;28;20227;-68
2022/11/11 22:41:28;;;;;;;26.80;16.90;;;7.50;99.90;;;;;;4973299;28;20295;-67
2022/11/11 22:43:56;;;;;;;28.23;17.10;;;7.50;99.90;;;;;;4972917;28;20218;-67
2022/11/11 22:46:24;;;;;;;24.13;16.43;;;7.50;99.90;;;;;;4973563;28;20215;-69
2022/11/11 22:48:54;;;;;;;30.80;18.33;;;7.50;99.90;;;;;;4973048;28;20208;-68
2022/11/11 22:51:22;;;;;;;28.97;18.17;;;7.50;99.90;;;;;;4970672;28;20315;-68
2022/11/11 22:53:53;;;;;;;31.80;18.07;;;7.50;99.90;;;;;;4972649;28;20204;-69
2022/11/11 22:56:20;;;;;;;24.07;16.43;;;7.40;99.90;;;;;;4972857;28;20548;-66
2022/11/11 22:58:48;;;;;;;35.07;21.87;;;7.40;99.90;;;;;;4971848;28;20295;-70
2022/11/11 23:01:17;;;;;;;35.93;23.00;;;7.40;99.90;;;;;;4970812;28;20207;-67
2022/11/11 23:03:45;;;;;;;33.07;18.80;;;7.40;99.90;;;;;;4967686;28;20205;-68
2022/11/11 23:06:16;;;;;;;29.27;16.70;;;7.40;99.90;;;;;;4969516;28;20570;-67
2022/11/11 23:08:43;;;;;;;28.73;17.73;;;7.40;99.90;;;;;;4975749;28;20663;-67
2022/11/11 23:11:12;;;;;;;25.83;17.13;;;7.40;99.90;;;;;;4976932;28;20238;-68
2022/11/11 23:13:40;;;;;;;31.07;18.90;;;7.40;99.90;;;;;;4976198;28;20223;-67
2022/11/11 23:16:09;;;;;;;28.20;17.47;;;7.30;99.90;;;;;;4976258;28;20210;-68
2022/11/11 23:18:36;;;;;;;25.40;17.20;;;7.30;99.90;;;;;;4976578;28;20208;-67
2022/11/11 23:21:05;;;;;;;25.80;16.40;;;7.30;99.90;;;;;;4976953;28;20208;-66
2022/11/11 23:23:34;;;;;;;26.70;17.20;;;7.30;99.90;;;;;;4974395;28;20234;-67
2022/11/11 23:26:02;;;;;;;25.93;16.37;;;7.30;99.90;;;;;;4976744;28;20218;-68
2022/11/11 23:28:29;;;;;;;28.93;17.70;;;7.30;99.90;;;;;;4975476;28;20216;-66
2022/11/11 23:31:01;;;;;;;27.00;16.47;;;7.30;99.90;;;;;;4976714;28;20223;-68
2022/11/11 23:33:30;;;;;;;31.40;18.70;;;7.30;99.90;;;;;;4972054;28;20216;-68
2022/11/11 23:35:59;;;;;;;30.20;17.57;;;7.30;99.90;;;;;;4975602;28;20204;-67
2022/11/11 23:38:26;;;;;;;30.17;18.97;;;7.30;99.90;;;;;;4976351;28;20705;-67
2022/11/11 23:40:54;;;;;;;27.63;18.80;;;7.30;99.90;;;;;;4976593;28;20208;-68
2022/11/11 23:43:21;;;;;;;33.77;19.63;;;7.30;99.90;;;;;;4976326;28;20215;-67
2022/11/11 23:45:48;;;;;;;34.63;19.40;;;7.30;99.90;;;;;;4976493;28;20549;-66
2022/11/11 23:48:15;;;;;;;31.27;20.70;;;7.20;99.90;;;;;;4976479;28;20204;-68
2022/11/11 23:50:42;;;;;;;32.90;18.83;;;7.20;99.90;;;;;;4975013;28;20234;-67
2022/11/11 23:53:08;;;;;;;33.57;19.80;;;7.20;99.90;;;;;;4976101;28;20212;-68
2022/11/11 23:55:35;;;;;;;30.20;19.67;;;7.20;99.90;;;;;;4974138;28;20254;-67
2022/11/11 23:58:04;;;;;;;36.27;20.87;;;7.20;99.90;;;;;;4968511;28;20209;-67
